Wednesday, February 22, 2017, 12:25 PM EST

KOKV, Winchester Regional

Location: Winchester, VA, United States Lat: 39.15
Local Time: 12:25 PM EST (17:25 GMT) Lon: -78.15
Time Zone: US/Eastern Elev: 728 ft

Show me the last for .
Show Decoded

2017-02-22 12:15 METAR KOKV 221715Z AUTO 22006KT 10SM CLR 16/07 A2995 RMK AO2 =
2017-02-22 11:55 METAR KOKV 221655Z AUTO 21004KT 10SM SCT120 15/07 A2996 RMK AO2 =
2017-02-22 11:35 METAR KOKV 221635Z AUTO 21007KT 10SM BKN120 15/07 A2997 RMK AO2 =
2017-02-22 11:15 METAR KOKV 221615Z AUTO 21006KT 10SM BKN120 13/06 A2997 RMK AO2 =
2017-02-22 10:55 METAR KOKV 221555Z AUTO 21006KT 10SM SCT120 13/06 A2998 RMK AO2 =
2017-02-22 10:35 METAR KOKV 221535Z AUTO 23007KT 10SM CLR 13/06 A2998 RMK AO2 =
2017-02-22 10:15 METAR KOKV 221515Z AUTO 22010KT 10SM CLR 13/06 A2999 RMK AO2 =
2017-02-22 09:55 METAR KOKV 221455Z AUTO 23004KT 10SM SCT080 12/05 A2999 RMK AO2 =
2017-02-22 09:35 METAR KOKV 221435Z AUTO 00000KT 10SM CLR 10/04 A3000 RMK AO2 =
2017-02-22 09:15 METAR KOKV 221415Z AUTO 00000KT 10SM SCT080 08/03 A3000 RMK AO2 =
2017-02-22 08:55 METAR KOKV 221355Z AUTO 00000KT 10SM BKN080 08/03 A3001 RMK AO2 =
2017-02-22 08:35 METAR KOKV 221335Z AUTO 00000KT 10SM SCT080 08/02 A3001 RMK AO2 =
2017-02-22 08:15 METAR KOKV 221315Z AUTO 00000KT 10SM CLR 07/02 A3001 RMK AO2 =
2017-02-22 07:55 METAR KOKV 221255Z AUTO 00000KT 10SM BKN120 06/02 A3001 RMK AO2 =
2017-02-22 07:35 METAR KOKV 221235Z AUTO 00000KT 10SM OVC120 06/02 A3001 RMK AO2 =
2017-02-22 07:15 METAR KOKV 221215Z AUTO 00000KT 10SM OVC110 06/02 A3001 RMK AO2 =
2017-02-22 06:55 METAR KOKV 221155Z AUTO 00000KT 10SM BKN100 06/02 A3000 RMK AO2 =
2017-02-22 06:35 METAR KOKV 221135Z AUTO 00000KT 10SM CLR 06/02 A3000 RMK AO2 =
2017-02-22 06:15 METAR KOKV 221115Z AUTO 03003KT 10SM CLR 06/02 A2999 RMK AO2 =
2017-02-22 05:55 METAR KOKV 221055Z AUTO 00000KT 10SM CLR 06/02 A2999 RMK AO2 =
2017-02-22 05:35 METAR KOKV 221035Z AUTO 00000KT 10SM CLR 06/02 A2999 RMK AO2 =
2017-02-22 05:15 METAR KOKV 221015Z AUTO 00000KT 10SM CLR 06/02 A2999 RMK AO2 =
2017-02-22 04:55 METAR KOKV 220955Z AUTO 00000KT 10SM CLR 06/02 A2999 RMK AO2 =
2017-02-22 04:35 METAR KOKV 220935Z AUTO 00000KT 10SM CLR 06/02 A2999 RMK AO2 =
2017-02-22 04:15 METAR KOKV 220915Z AUTO 00000KT 10SM CLR 06/02 A2999 RMK AO2 =
2017-02-22 03:55 METAR KOKV 220855Z AUTO 00000KT 10SM CLR 06/02 A2999 RMK AO2 =
2017-02-22 03:35 METAR KOKV 220835Z AUTO 00000KT 10SM CLR 07/02 A2999 RMK AO2 =
2017-02-22 03:15 METAR KOKV 220815Z AUTO 16003KT 10SM CLR 06/02 A2999 RMK AO2 =
2017-02-22 02:55 METAR KOKV 220755Z AUTO 17003KT 10SM CLR 06/02 A3000 RMK AO2 =
2017-02-22 02:35 METAR KOKV 220735Z AUTO 00000KT 10SM CLR 07/02 A3000 RMK AO2 =
2017-02-22 02:15 METAR KOKV 220715Z AUTO 00000KT 10SM CLR 07/02 A3000 RMK AO2 =
2017-02-22 01:55 METAR KOKV 220655Z AUTO 13003KT 10SM CLR 07/02 A3001 RMK AO2 =
2017-02-22 01:35 METAR KOKV 220635Z AUTO 14003KT 10SM CLR 07/02 A3002 RMK AO2 =
2017-02-22 01:15 METAR KOKV 220615Z AUTO 00000KT 10SM CLR 07/02 A3003 RMK AO2 =
2017-02-22 00:55 METAR KOKV 220555Z AUTO 00000KT 10SM CLR 08/02 A3003 RMK AO2 =
2017-02-22 00:35 METAR KOKV 220535Z AUTO 00000KT 10SM CLR 08/02 A3004 RMK AO2 =
2017-02-22 00:15 METAR KOKV 220515Z AUTO 00000KT 10SM CLR 08/01 A3005 RMK AO2 =
2017-02-21 23:55 METAR KOKV 220455Z AUTO 00000KT 10SM CLR 09/01 A3005 RMK AO2 =
2017-02-21 23:35 METAR KOKV 220435Z AUTO 00000KT 10SM CLR 09/01 A3006 RMK AO2 =
2017-02-21 23:15 METAR KOKV 220415Z AUTO 00000KT 10SM CLR 10/01 A3007 RMK AO2 =
2017-02-21 22:55 METAR KOKV 220355Z AUTO 00000KT 10SM CLR 10/01 A3006 RMK AO2 =
2017-02-21 22:35 METAR KOKV 220335Z AUTO 18005KT 10SM CLR 10/01 A3007 RMK AO2 =
2017-02-21 22:15 METAR KOKV 220315Z AUTO 17005KT 10SM CLR 10/01 A3008 RMK AO2 =
2017-02-21 21:55 METAR KOKV 220255Z AUTO 15006KT 10SM CLR 10/01 A3008 RMK AO2 =
2017-02-21 21:35 METAR KOKV 220235Z AUTO 16004KT 10SM CLR 10/01 A3010 RMK AO2 =
2017-02-21 21:15 METAR KOKV 220215Z AUTO 17005KT 10SM CLR 10/01 A3010 RMK AO2 =
2017-02-21 21:00 METAR KOKV 220200Z AUTO 17005KT 10SM CLR 10/01 A3010 RMK AO2 =
2017-02-21 20:35 METAR KOKV 220135Z AUTO 16007KT 10SM CLR 10/01 A3010 RMK AO2 =
2017-02-21 20:15 METAR KOKV 220115Z AUTO 18007KT 10SM CLR 10/01 A3011 RMK AO2 =
2017-02-21 19:55 METAR KOKV 220055Z AUTO 17006KT 10SM CLR 11/01 A3010 RMK AO2 =
2017-02-21 19:35 METAR KOKV 220035Z AUTO 17007KT 10SM CLR 11/01 A3010 RMK AO2 =
2017-02-21 19:15 METAR KOKV 220015Z AUTO 16007KT 10SM CLR 11/01 A3010 RMK AO2 =
2017-02-21 18:55 METAR KOKV 212355Z AUTO 16008KT 10SM CLR 11/01 A3010 RMK AO2 =
2017-02-21 18:35 METAR KOKV 212335Z AUTO 15007KT 10SM CLR 11/00 A3011 RMK AO2 =
2017-02-21 18:15 METAR KOKV 212315Z AUTO 15006KT 10SM CLR 10/00 A3011 RMK AO2 =
2017-02-21 17:55 METAR KOKV 212255Z AUTO 13005KT 10SM CLR 10/00 A3010 RMK AO2 =
2017-02-21 17:35 METAR KOKV 212235Z AUTO 15007KT 10SM CLR 12/00 A3010 RMK AO2 =
2017-02-21 17:15 METAR KOKV 212215Z AUTO 15007KT 10SM CLR 12/00 A3010 RMK AO2 =
2017-02-21 16:55 METAR KOKV 212155Z AUTO 16010KT 10SM CLR 12/00 A3010 RMK AO2 =
2017-02-21 16:35 METAR KOKV 212135Z AUTO 16010KT 10SM CLR 13/00 A3010 RMK AO2 =
2017-02-21 16:15 METAR KOKV 212115Z AUTO 16008KT 120V190 10SM CLR 12/01 A3011 RMK AO2 =
2017-02-21 15:55 METAR KOKV 212055Z AUTO 15008KT 10SM CLR 12/01 A3012 RMK AO2 =
2017-02-21 15:35 METAR KOKV 212035Z AUTO 15010KT 10SM CLR 12/01 A3012 RMK AO2 =
2017-02-21 15:15 METAR KOKV 212015Z AUTO 16009KT 10SM CLR 12/01 A3012 RMK AO2 =
2017-02-21 14:55 METAR KOKV 211955Z AUTO 16009G14KT 10SM CLR 13/00 A3012 RMK AO2 =
2017-02-21 14:35 METAR KOKV 211935Z AUTO 14012KT 10SM CLR 13/01 A3012 RMK AO2 =
2017-02-21 14:15 METAR KOKV 211915Z AUTO 18008KT 10SM CLR 13/00 A3013 RMK AO2 =
2017-02-21 13:55 METAR KOKV 211855Z AUTO 15008KT 10SM CLR 12/00 A3015 RMK AO2 =
2017-02-21 13:35 METAR KOKV 211835Z AUTO 15008G14KT 10SM CLR 12/00 A3016 RMK AO2 =
2017-02-21 13:15 METAR KOKV 211815Z AUTO 17006KT 10SM CLR 12/00 A3017 RMK AO2 =
2017-02-21 12:55 METAR KOKV 211755Z AUTO 17009KT 10SM CLR 11/00 A3018 RMK AO2 =
2017-02-21 12:35 METAR KOKV 211735Z AUTO 14009KT 10SM CLR 11/00 A3020 RMK AO2 =

Support USWX by starting your Amazon purchase here.